sensor_id;sensor_type;location;lat;lon;timestamp;P1;durP1;ratioP1;P2;durP2;ratioP2
19113;SDS011;9689;51.052;13.772;2022-08-21T00:00:14;61.08;;;34.28;;
19113;SDS011;9689;51.052;13.772;2022-08-21T00:05:18;66.80;;;35.88;;
19113;SDS011;9689;51.052;13.772;2022-08-21T00:10:19;59.42;;;33.83;;
19113;SDS011;9689;51.052;13.772;2022-08-21T00:15:23;68.95;;;35.13;;
19113;SDS011;9689;51.052;13.772;2022-08-21T00:20:26;67.50;;;34.33;;
19113;SDS011;9689;51.052;13.772;2022-08-21T00:25:27;73.43;;;35.85;;
19113;SDS011;9689;51.052;13.772;2022-08-21T00:30:29;74.35;;;38.33;;
19113;SDS011;9689;51.052;13.772;2022-08-21T00:35:32;68.57;;;34.45;;
19113;SDS011;9689;51.052;13.772;2022-08-21T00:40:36;64.63;;;34.70;;
19113;SDS011;9689;51.052;13.772;2022-08-21T00:45:44;69.20;;;34.63;;
19113;SDS011;9689;51.052;13.772;2022-08-21T00:50:46;68.82;;;37.03;;
19113;SDS011;9689;51.052;13.772;2022-08-21T00:55:51;67.30;;;38.03;;
19113;SDS011;9689;51.052;13.772;2022-08-21T01:00:56;77.40;;;38.78;;
19113;SDS011;9689;51.052;13.772;2022-08-21T01:05:58;80.47;;;40.63;;
19113;SDS011;9689;51.052;13.772;2022-08-21T01:10:59;79.22;;;41.50;;
19113;SDS011;9689;51.052;13.772;2022-08-21T01:16:03;75.57;;;38.58;;
19113;SDS011;9689;51.052;13.772;2022-08-21T01:21:11;78.00;;;38.03;;
19113;SDS011;9689;51.052;13.772;2022-08-21T01:26:14;65.07;;;34.55;;
19113;SDS011;9689;51.052;13.772;2022-08-21T01:31:16;50.17;;;28.70;;
19113;SDS011;9689;51.052;13.772;2022-08-21T01:36:26;50.17;;;25.20;;
19113;SDS011;9689;51.052;13.772;2022-08-21T01:41:27;44.25;;;24.48;;
19113;SDS011;9689;51.052;13.772;2022-08-21T01:46:28;41.10;;;23.27;;
19113;SDS011;9689;51.052;13.772;2022-08-21T01:51:30;35.65;;;20.58;;
19113;SDS011;9689;51.052;13.772;2022-08-21T01:56:35;31.42;;;18.83;;
19113;SDS011;9689;51.052;13.772;2022-08-21T02:01:37;30.38;;;18.23;;
19113;SDS011;9689;51.052;13.772;2022-08-21T02:06:39;27.27;;;15.75;;
19113;SDS011;9689;51.052;13.772;2022-08-21T02:11:40;28.63;;;16.27;;
19113;SDS011;9689;51.052;13.772;2022-08-21T02:16:42;22.85;;;14.50;;
19113;SDS011;9689;51.052;13.772;2022-08-21T02:21:48;32.20;;;16.10;;
19113;SDS011;9689;51.052;13.772;2022-08-21T02:26:49;27.02;;;16.30;;
19113;SDS011;9689;51.052;13.772;2022-08-21T02:31:49;26.58;;;16.65;;
19113;SDS011;9689;51.052;13.772;2022-08-21T02:36:51;27.13;;;15.52;;
19113;SDS011;9689;51.052;13.772;2022-08-21T02:41:58;27.67;;;16.63;;
19113;SDS011;9689;51.052;13.772;2022-08-21T02:46:59;28.08;;;17.48;;
19113;SDS011;9689;51.052;13.772;2022-08-21T02:52:01;25.70;;;16.58;;
19113;SDS011;9689;51.052;13.772;2022-08-21T02:57:01;32.22;;;17.13;;
19113;SDS011;9689;51.052;13.772;2022-08-21T03:02:02;22.65;;;14.90;;
19113;SDS011;9689;51.052;13.772;2022-08-21T03:07:05;25.23;;;16.23;;
19113;SDS011;9689;51.052;13.772;2022-08-21T03:12:09;22.75;;;14.40;;
19113;SDS011;9689;51.052;13.772;2022-08-21T03:17:10;24.13;;;15.38;;
19113;SDS011;9689;51.052;13.772;2022-08-21T03:22:12;25.58;;;15.25;;
19113;SDS011;9689;51.052;13.772;2022-08-21T03:27:13;25.95;;;15.85;;
19113;SDS011;9689;51.052;13.772;2022-08-21T03:32:14;22.70;;;15.38;;
19113;SDS011;9689;51.052;13.772;2022-08-21T03:37:16;25.88;;;16.02;;
19113;SDS011;9689;51.052;13.772;2022-08-21T03:42:17;23.20;;;15.23;;
19113;SDS011;9689;51.052;13.772;2022-08-21T03:47:18;25.45;;;15.38;;
19113;SDS011;9689;51.052;13.772;2022-08-21T03:52:20;28.13;;;16.13;;
19113;SDS011;9689;51.052;13.772;2022-08-21T03:57:21;26.52;;;17.23;;
19113;SDS011;9689;51.052;13.772;2022-08-21T04:02:22;27.42;;;14.27;;
19113;SDS011;9689;51.052;13.772;2022-08-21T04:07:24;21.35;;;14.43;;
19113;SDS011;9689;51.052;13.772;2022-08-21T04:12:25;28.73;;;16.67;;
19113;SDS011;9689;51.052;13.772;2022-08-21T04:17:25;25.10;;;16.15;;
19113;SDS011;9689;51.052;13.772;2022-08-21T04:22:27;24.75;;;16.25;;
19113;SDS011;9689;51.052;13.772;2022-08-21T04:27:28;25.13;;;16.00;;
19113;SDS011;9689;51.052;13.772;2022-08-21T04:32:28;27.02;;;15.07;;
19113;SDS011;9689;51.052;13.772;2022-08-21T04:37:31;23.88;;;15.20;;
19113;SDS011;9689;51.052;13.772;2022-08-21T04:42:32;21.98;;;15.02;;
19113;SDS011;9689;51.052;13.772;2022-08-21T04:47:33;26.88;;;15.40;;
19113;SDS011;9689;51.052;13.772;2022-08-21T04:52:52;23.75;;;15.40;;
19113;SDS011;9689;51.052;13.772;2022-08-21T04:57:54;25.63;;;15.60;;
19113;SDS011;9689;51.052;13.772;2022-08-21T05:02:55;21.83;;;15.02;;
19113;SDS011;9689;51.052;13.772;2022-08-21T05:08:01;25.55;;;15.73;;
19113;SDS011;9689;51.052;13.772;2022-08-21T05:13:03;22.42;;;13.90;;
19113;SDS011;9689;51.052;13.772;2022-08-21T05:18:06;21.33;;;15.02;;
19113;SDS011;9689;51.052;13.772;2022-08-21T05:23:08;21.55;;;13.18;;
19113;SDS011;9689;51.052;13.772;2022-08-21T05:28:10;20.48;;;13.45;;
19113;SDS011;9689;51.052;13.772;2022-08-21T05:33:11;25.25;;;13.93;;
19113;SDS011;9689;51.052;13.772;2022-08-21T05:38:14;18.67;;;12.30;;
19113;SDS011;9689;51.052;13.772;2022-08-21T05:43:16;17.60;;;12.27;;
19113;SDS011;9689;51.052;13.772;2022-08-21T05:48:18;17.67;;;12.38;;
19113;SDS011;9689;51.052;13.772;2022-08-21T05:53:21;16.65;;;12.50;;
19113;SDS011;9689;51.052;13.772;2022-08-21T05:58:23;20.88;;;13.85;;
19113;SDS011;9689;51.052;13.772;2022-08-21T06:03:25;18.65;;;12.68;;
19113;SDS011;9689;51.052;13.772;2022-08-21T06:08:28;19.88;;;12.40;;
19113;SDS011;9689;51.052;13.772;2022-08-21T06:13:29;20.65;;;14.25;;
19113;SDS011;9689;51.052;13.772;2022-08-21T06:18:30;18.38;;;13.82;;
19113;SDS011;9689;51.052;13.772;2022-08-21T06:23:32;21.38;;;14.77;;
19113;SDS011;9689;51.052;13.772;2022-08-21T06:28:33;23.95;;;15.77;;
19113;SDS011;9689;51.052;13.772;2022-08-21T06:33:36;26.42;;;16.63;;
19113;SDS011;9689;51.052;13.772;2022-08-21T06:38:38;29.80;;;19.65;;
19113;SDS011;9689;51.052;13.772;2022-08-21T06:43:39;32.47;;;20.67;;
19113;SDS011;9689;51.052;13.772;2022-08-21T06:48:40;24.58;;;17.88;;
19113;SDS011;9689;51.052;13.772;2022-08-21T06:53:42;28.98;;;19.25;;
19113;SDS011;9689;51.052;13.772;2022-08-21T06:58:43;24.67;;;16.60;;
19113;SDS011;9689;51.052;13.772;2022-08-21T07:03:44;23.15;;;17.23;;
19113;SDS011;9689;51.052;13.772;2022-08-21T07:08:46;24.95;;;16.83;;
19113;SDS011;9689;51.052;13.772;2022-08-21T07:13:47;21.10;;;16.23;;
19113;SDS011;9689;51.052;13.772;2022-08-21T07:18:48;24.98;;;15.90;;
19113;SDS011;9689;51.052;13.772;2022-08-21T07:23:50;22.25;;;16.90;;
19113;SDS011;9689;51.052;13.772;2022-08-21T07:28:51;24.98;;;16.38;;
19113;SDS011;9689;51.052;13.772;2022-08-21T07:33:53;25.33;;;16.75;;
19113;SDS011;9689;51.052;13.772;2022-08-21T07:38:56;23.08;;;16.02;;
19113;SDS011;9689;51.052;13.772;2022-08-21T07:43:56;19.75;;;15.10;;
19113;SDS011;9689;51.052;13.772;2022-08-21T07:48:58;21.08;;;14.73;;
19113;SDS011;9689;51.052;13.772;2022-08-21T07:54:00;26.17;;;14.93;;
19113;SDS011;9689;51.052;13.772;2022-08-21T07:59:01;20.42;;;14.20;;
19113;SDS011;9689;51.052;13.772;2022-08-21T08:04:02;20.77;;;13.40;;
19113;SDS011;9689;51.052;13.772;2022-08-21T08:09:04;17.45;;;13.38;;
19113;SDS011;9689;51.052;13.772;2022-08-21T08:14:05;21.75;;;14.38;;
19113;SDS011;9689;51.052;13.772;2022-08-21T08:19:06;20.63;;;13.68;;
19113;SDS011;9689;51.052;13.772;2022-08-21T08:24:08;14.38;;;12.32;;
19113;SDS011;9689;51.052;13.772;2022-08-21T08:29:17;18.52;;;12.20;;
19113;SDS011;9689;51.052;13.772;2022-08-21T08:34:18;15.90;;;11.23;;
19113;SDS011;9689;51.052;13.772;2022-08-21T08:39:25;17.40;;;11.68;;
19113;SDS011;9689;51.052;13.772;2022-08-21T08:44:28;15.95;;;10.63;;
19113;SDS011;9689;51.052;13.772;2022-08-21T08:49:30;16.17;;;10.57;;
19113;SDS011;9689;51.052;13.772;2022-08-21T08:54:37;13.88;;;11.35;;
19113;SDS011;9689;51.052;13.772;2022-08-21T08:59:44;15.00;;;10.65;;
19113;SDS011;9689;51.052;13.772;2022-08-21T09:04:49;31.98;;;10.85;;
19113;SDS011;9689;51.052;13.772;2022-08-21T09:09:55;13.35;;;9.50;;
19113;SDS011;9689;51.052;13.772;2022-08-21T09:15:09;13.75;;;8.82;;
19113;SDS011;9689;51.052;13.772;2022-08-21T09:20:19;15.38;;;8.55;;
19113;SDS011;9689;51.052;13.772;2022-08-21T09:25:31;12.32;;;8.60;;
19113;SDS011;9689;51.052;13.772;2022-08-21T09:30:36;8.00;;;6.38;;
19113;SDS011;9689;51.052;13.772;2022-08-21T09:35:48;8.13;;;5.40;;
19113;SDS011;9689;51.052;13.772;2022-08-21T09:40:56;13.90;;;7.13;;
19113;SDS011;9689;51.052;13.772;2022-08-21T09:46:09;11.23;;;6.43;;
19113;SDS011;9689;51.052;13.772;2022-08-21T09:51:12;7.47;;;4.05;;
19113;SDS011;9689;51.052;13.772;2022-08-21T09:56:20;9.52;;;4.13;;
19113;SDS011;9689;51.052;13.772;2022-08-21T10:01:45;8.65;;;3.78;;
19113;SDS011;9689;51.052;13.772;2022-08-21T10:06:48;6.68;;;3.50;;
19113;SDS011;9689;51.052;13.772;2022-08-21T10:11:52;5.05;;;2.80;;
19113;SDS011;9689;51.052;13.772;2022-08-21T10:16:59;8.10;;;3.00;;
19113;SDS011;9689;51.052;13.772;2022-08-21T10:22:09;7.68;;;3.53;;
19113;SDS011;9689;51.052;13.772;2022-08-21T10:27:22;10.82;;;3.33;;
19113;SDS011;9689;51.052;13.772;2022-08-21T10:32:43;5.15;;;2.63;;
19113;SDS011;9689;51.052;13.772;2022-08-21T10:37:59;5.32;;;2.83;;
19113;SDS011;9689;51.052;13.772;2022-08-21T10:43:37;6.32;;;2.50;;
19113;SDS011;9689;51.052;13.772;2022-08-21T10:48:50;9.32;;;2.22;;
19113;SDS011;9689;51.052;13.772;2022-08-21T10:53:59;9.05;;;2.35;;
19113;SDS011;9689;51.052;13.772;2022-08-21T10:59:15;5.13;;;2.50;;
19113;SDS011;9689;51.052;13.772;2022-08-21T11:04:29;6.30;;;2.58;;
19113;SDS011;9689;51.052;13.772;2022-08-21T11:09:48;4.93;;;2.22;;
19113;SDS011;9689;51.052;13.772;2022-08-21T11:14:51;5.50;;;2.33;;
19113;SDS011;9689;51.052;13.772;2022-08-21T11:19:59;3.20;;;1.98;;
19113;SDS011;9689;51.052;13.772;2022-08-21T11:25:06;4.38;;;2.25;;
19113;SDS011;9689;51.052;13.772;2022-08-21T11:30:12;6.50;;;1.88;;
19113;SDS011;9689;51.052;13.772;2022-08-21T11:35:17;8.52;;;1.88;;
19113;SDS011;9689;51.052;13.772;2022-08-21T11:40:30;9.48;;;2.35;;
19113;SDS011;9689;51.052;13.772;2022-08-21T11:45:43;7.43;;;2.30;;
19113;SDS011;9689;51.052;13.772;2022-08-21T11:50:46;5.57;;;2.40;;
19113;SDS011;9689;51.052;13.772;2022-08-21T11:55:51;13.98;;;2.67;;
19113;SDS011;9689;51.052;13.772;2022-08-21T12:01:00;7.03;;;1.70;;
19113;SDS011;9689;51.052;13.772;2022-08-21T12:06:07;6.85;;;1.60;;
19113;SDS011;9689;51.052;13.772;2022-08-21T12:11:10;4.53;;;1.33;;
19113;SDS011;9689;51.052;13.772;2022-08-21T12:16:31;6.07;;;1.58;;
19113;SDS011;9689;51.052;13.772;2022-08-21T12:21:47;7.28;;;2.15;;
19113;SDS011;9689;51.052;13.772;2022-08-21T12:26:50;9.05;;;2.22;;
19113;SDS011;9689;51.052;13.772;2022-08-21T12:31:56;6.97;;;1.67;;
19113;SDS011;9689;51.052;13.772;2022-08-21T12:37:00;7.47;;;2.03;;
19113;SDS011;9689;51.052;13.772;2022-08-21T12:42:05;2.47;;;1.15;;
19113;SDS011;9689;51.052;13.772;2022-08-21T12:47:15;9.45;;;1.70;;
19113;SDS011;9689;51.052;13.772;2022-08-21T12:52:19;4.28;;;1.65;;
19113;SDS011;9689;51.052;13.772;2022-08-21T12:57:23;4.20;;;1.50;;
19113;SDS011;9689;51.052;13.772;2022-08-21T13:02:30;4.45;;;1.20;;
19113;SDS011;9689;51.052;13.772;2022-08-21T13:07:35;8.75;;;1.73;;
19113;SDS011;9689;51.052;13.772;2022-08-21T13:12:37;3.70;;;1.30;;
19113;SDS011;9689;51.052;13.772;2022-08-21T13:17:41;3.75;;;1.40;;
19113;SDS011;9689;51.052;13.772;2022-08-21T13:22:47;9.82;;;2.17;;
19113;SDS011;9689;51.052;13.772;2022-08-21T13:27:56;8.05;;;1.52;;
19113;SDS011;9689;51.052;13.772;2022-08-21T13:33:01;7.50;;;1.92;;
19113;SDS011;9689;51.052;13.772;2022-08-21T13:38:11;6.93;;;1.95;;
19113;SDS011;9689;51.052;13.772;2022-08-21T13:43:12;5.60;;;2.08;;
19113;SDS011;9689;51.052;13.772;2022-08-21T13:48:21;6.82;;;1.85;;
19113;SDS011;9689;51.052;13.772;2022-08-21T13:53:27;6.57;;;1.70;;
19113;SDS011;9689;51.052;13.772;2022-08-21T13:58:31;4.20;;;1.25;;
19113;SDS011;9689;51.052;13.772;2022-08-21T14:03:35;7.15;;;1.70;;
19113;SDS011;9689;51.052;13.772;2022-08-21T14:08:46;11.07;;;1.67;;
19113;SDS011;9689;51.052;13.772;2022-08-21T14:13:55;3.30;;;1.70;;
19113;SDS011;9689;51.052;13.772;2022-08-21T14:19:11;5.85;;;1.30;;
19113;SDS011;9689;51.052;13.772;2022-08-21T14:24:27;4.90;;;1.65;;
19113;SDS011;9689;51.052;13.772;2022-08-21T14:29:35;6.00;;;1.73;;
19113;SDS011;9689;51.052;13.772;2022-08-21T14:34:41;7.03;;;1.45;;
19113;SDS011;9689;51.052;13.772;2022-08-21T14:39:45;4.25;;;1.70;;
19113;SDS011;9689;51.052;13.772;2022-08-21T14:44:45;6.90;;;1.20;;
19113;SDS011;9689;51.052;13.772;2022-08-21T14:49:48;3.45;;;1.45;;
19113;SDS011;9689;51.052;13.772;2022-08-21T14:54:49;10.43;;;1.48;;
19113;SDS011;9689;51.052;13.772;2022-08-21T14:59:50;5.78;;;1.52;;
19113;SDS011;9689;51.052;13.772;2022-08-21T15:04:52;3.53;;;1.17;;
19113;SDS011;9689;51.052;13.772;2022-08-21T15:09:53;5.00;;;1.35;;
19113;SDS011;9689;51.052;13.772;2022-08-21T15:14:54;5.05;;;1.40;;
19113;SDS011;9689;51.052;13.772;2022-08-21T15:19:56;5.68;;;1.55;;
19113;SDS011;9689;51.052;13.772;2022-08-21T15:24:57;5.90;;;1.48;;
19113;SDS011;9689;51.052;13.772;2022-08-21T15:29:57;3.63;;;1.33;;
19113;SDS011;9689;51.052;13.772;2022-08-21T15:35:00;4.00;;;1.33;;
19113;SDS011;9689;51.052;13.772;2022-08-21T15:40:00;2.97;;;1.27;;
19113;SDS011;9689;51.052;13.772;2022-08-21T15:45:02;3.90;;;1.42;;
19113;SDS011;9689;51.052;13.772;2022-08-21T15:50:06;4.68;;;1.42;;
19113;SDS011;9689;51.052;13.772;2022-08-21T15:55:09;3.63;;;1.40;;
19113;SDS011;9689;51.052;13.772;2022-08-21T16:00:14;3.83;;;1.35;;
19113;SDS011;9689;51.052;13.772;2022-08-21T16:05:26;4.18;;;1.42;;
19113;SDS011;9689;51.052;13.772;2022-08-21T16:10:28;4.25;;;1.58;;
19113;SDS011;9689;51.052;13.772;2022-08-21T16:15:29;4.43;;;1.63;;
19113;SDS011;9689;51.052;13.772;2022-08-21T16:20:31;9.68;;;1.65;;
19113;SDS011;9689;51.052;13.772;2022-08-21T16:25:33;6.55;;;1.40;;
19113;SDS011;9689;51.052;13.772;2022-08-21T16:30:38;3.70;;;1.65;;
19113;SDS011;9689;51.052;13.772;2022-08-21T16:35:40;5.07;;;1.50;;
19113;SDS011;9689;51.052;13.772;2022-08-21T16:40:41;6.15;;;2.13;;
19113;SDS011;9689;51.052;13.772;2022-08-21T16:45:42;3.22;;;1.52;;
19113;SDS011;9689;51.052;13.772;2022-08-21T16:50:45;6.35;;;1.83;;
19113;SDS011;9689;51.052;13.772;2022-08-21T16:55:49;6.50;;;2.15;;
19113;SDS011;9689;51.052;13.772;2022-08-21T17:00:51;4.25;;;1.63;;
19113;SDS011;9689;51.052;13.772;2022-08-21T17:05:54;5.35;;;1.27;;
19113;SDS011;9689;51.052;13.772;2022-08-21T17:10:54;6.70;;;1.75;;
19113;SDS011;9689;51.052;13.772;2022-08-21T17:15:56;4.90;;;1.63;;
19113;SDS011;9689;51.052;13.772;2022-08-21T17:20:58;5.28;;;1.40;;
19113;SDS011;9689;51.052;13.772;2022-08-21T17:25:59;6.38;;;2.15;;
19113;SDS011;9689;51.052;13.772;2022-08-21T17:31:00;6.50;;;1.58;;
19113;SDS011;9689;51.052;13.772;2022-08-21T17:36:10;6.75;;;1.58;;
19113;SDS011;9689;51.052;13.772;2022-08-21T17:41:11;8.07;;;1.70;;
19113;SDS011;9689;51.052;13.772;2022-08-21T17:46:15;4.65;;;2.00;;
19113;SDS011;9689;51.052;13.772;2022-08-21T17:51:19;4.93;;;1.60;;
19113;SDS011;9689;51.052;13.772;2022-08-21T17:56:28;5.25;;;2.20;;
19113;SDS011;9689;51.052;13.772;2022-08-21T18:01:32;5.70;;;1.70;;
19113;SDS011;9689;51.052;13.772;2022-08-21T18:06:37;9.25;;;1.92;;
19113;SDS011;9689;51.052;13.772;2022-08-21T18:11:39;4.25;;;1.80;;
19113;SDS011;9689;51.052;13.772;2022-08-21T18:16:42;2.88;;;1.40;;
19113;SDS011;9689;51.052;13.772;2022-08-21T18:21:44;7.82;;;2.10;;
19113;SDS011;9689;51.052;13.772;2022-08-21T18:26:45;5.85;;;1.92;;
19113;SDS011;9689;51.052;13.772;2022-08-21T18:31:46;4.93;;;1.98;;
19113;SDS011;9689;51.052;13.772;2022-08-21T18:36:48;5.72;;;2.00;;
19113;SDS011;9689;51.052;13.772;2022-08-21T18:41:50;5.65;;;2.08;;
19113;SDS011;9689;51.052;13.772;2022-08-21T18:46:53;7.40;;;2.42;;
19113;SDS011;9689;51.052;13.772;2022-08-21T18:51:58;6.38;;;2.28;;
19113;SDS011;9689;51.052;13.772;2022-08-21T18:57:03;4.93;;;1.77;;
19113;SDS011;9689;51.052;13.772;2022-08-21T19:02:07;9.40;;;2.33;;
19113;SDS011;9689;51.052;13.772;2022-08-21T19:07:10;5.05;;;2.08;;
19113;SDS011;9689;51.052;13.772;2022-08-21T19:12:13;6.50;;;2.10;;
19113;SDS011;9689;51.052;13.772;2022-08-21T19:17:20;6.00;;;2.60;;
19113;SDS011;9689;51.052;13.772;2022-08-21T19:22:23;5.97;;;2.28;;
19113;SDS011;9689;51.052;13.772;2022-08-21T19:27:24;5.32;;;2.58;;
19113;SDS011;9689;51.052;13.772;2022-08-21T19:32:25;7.57;;;2.25;;
19113;SDS011;9689;51.052;13.772;2022-08-21T19:37:28;8.15;;;2.83;;
19113;SDS011;9689;51.052;13.772;2022-08-21T19:42:28;5.43;;;2.38;;
19113;SDS011;9689;51.052;13.772;2022-08-21T19:47:29;7.82;;;2.85;;
19113;SDS011;9689;51.052;13.772;2022-08-21T19:52:32;6.68;;;2.30;;
19113;SDS011;9689;51.052;13.772;2022-08-21T19:57:34;8.23;;;2.95;;
19113;SDS011;9689;51.052;13.772;2022-08-21T20:02:36;7.20;;;2.40;;
19113;SDS011;9689;51.052;13.772;2022-08-21T20:07:48;11.35;;;3.35;;
19113;SDS011;9689;51.052;13.772;2022-08-21T20:12:51;10.57;;;3.90;;
19113;SDS011;9689;51.052;13.772;2022-08-21T20:17:52;7.57;;;3.80;;
19113;SDS011;9689;51.052;13.772;2022-08-21T20:22:56;7.85;;;2.92;;
19113;SDS011;9689;51.052;13.772;2022-08-21T20:27:57;9.48;;;3.67;;
19113;SDS011;9689;51.052;13.772;2022-08-21T20:32:59;13.85;;;3.88;;
19113;SDS011;9689;51.052;13.772;2022-08-21T20:38:01;7.22;;;3.88;;
19113;SDS011;9689;51.052;13.772;2022-08-21T20:43:03;5.53;;;3.33;;
19113;SDS011;9689;51.052;13.772;2022-08-21T20:48:04;12.35;;;3.03;;
19113;SDS011;9689;51.052;13.772;2022-08-21T20:53:12;7.70;;;2.80;;
19113;SDS011;9689;51.052;13.772;2022-08-21T20:58:17;9.05;;;3.05;;
19113;SDS011;9689;51.052;13.772;2022-08-21T21:03:28;8.35;;;3.42;;
19113;SDS011;9689;51.052;13.772;2022-08-21T21:08:34;7.90;;;4.00;;
19113;SDS011;9689;51.052;13.772;2022-08-21T21:13:45;7.97;;;3.20;;
19113;SDS011;9689;51.052;13.772;2022-08-21T21:18:51;6.68;;;3.25;;
19113;SDS011;9689;51.052;13.772;2022-08-21T21:24:01;9.40;;;3.40;;
19113;SDS011;9689;51.052;13.772;2022-08-21T21:29:07;8.45;;;3.03;;
19113;SDS011;9689;51.052;13.772;2022-08-21T21:34:14;8.90;;;3.72;;
19113;SDS011;9689;51.052;13.772;2022-08-21T21:39:26;6.28;;;3.05;;
19113;SDS011;9689;51.052;13.772;2022-08-21T21:44:41;6.63;;;3.55;;
19113;SDS011;9689;51.052;13.772;2022-08-21T21:50:06;10.32;;;3.35;;
19113;SDS011;9689;51.052;13.772;2022-08-21T21:55:23;6.85;;;3.63;;
19113;SDS011;9689;51.052;13.772;2022-08-21T22:00:33;8.50;;;3.95;;
19113;SDS011;9689;51.052;13.772;2022-08-21T22:05:52;7.15;;;3.60;;
19113;SDS011;9689;51.052;13.772;2022-08-21T22:11:01;6.63;;;3.28;;
19113;SDS011;9689;51.052;13.772;2022-08-21T22:16:23;10.48;;;3.80;;
19113;SDS011;9689;51.052;13.772;2022-08-21T22:21:26;9.27;;;3.35;;
19113;SDS011;9689;51.052;13.772;2022-08-21T22:26:35;9.10;;;3.60;;
19113;SDS011;9689;51.052;13.772;2022-08-21T22:31:43;11.30;;;3.80;;
19113;SDS011;9689;51.052;13.772;2022-08-21T22:37:04;8.25;;;3.78;;
19113;SDS011;9689;51.052;13.772;2022-08-21T22:42:09;8.43;;;3.60;;
19113;SDS011;9689;51.052;13.772;2022-08-21T22:47:12;8.32;;;3.90;;
19113;SDS011;9689;51.052;13.772;2022-08-21T22:52:22;8.30;;;4.32;;
19113;SDS011;9689;51.052;13.772;2022-08-21T22:57:27;7.70;;;3.50;;
19113;SDS011;9689;51.052;13.772;2022-08-21T23:02:32;7.90;;;3.70;;
19113;SDS011;9689;51.052;13.772;2022-08-21T23:07:38;9.40;;;3.47;;
19113;SDS011;9689;51.052;13.772;2022-08-21T23:12:46;5.82;;;3.63;;
19113;SDS011;9689;51.052;13.772;2022-08-21T23:17:49;6.30;;;3.55;;
19113;SDS011;9689;51.052;13.772;2022-08-21T23:23:01;6.78;;;4.25;;
19113;SDS011;9689;51.052;13.772;2022-08-21T23:28:13;6.70;;;4.15;;
19113;SDS011;9689;51.052;13.772;2022-08-21T23:33:28;11.52;;;4.25;;
19113;SDS011;9689;51.052;13.772;2022-08-21T23:38:45;7.47;;;3.95;;
19113;SDS011;9689;51.052;13.772;2022-08-21T23:44:02;9.40;;;4.07;;
19113;SDS011;9689;51.052;13.772;2022-08-21T23:49:15;17.20;;;3.90;;
19113;SDS011;9689;51.052;13.772;2022-08-21T23:54:33;8.93;;;3.95;;
19113;SDS011;9689;51.052;13.772;2022-08-21T23:59:52;8.68;;;4.03;;
